sensor_id;sensor_type;location;lat;lon;timestamp;P1;durP1;ratioP1;P2;durP2;ratioP2
61096;SDS011;46977;50.936;6.908;2022-12-10T00:02:53;53.47;;;23.38;;
61096;SDS011;46977;50.936;6.908;2022-12-10T00:06:01;51.13;;;21.65;;
61096;SDS011;46977;50.936;6.908;2022-12-10T00:09:06;51.10;;;22.83;;
61096;SDS011;46977;50.936;6.908;2022-12-10T00:12:10;55.28;;;21.23;;
61096;SDS011;46977;50.936;6.908;2022-12-10T00:15:12;52.20;;;21.20;;
61096;SDS011;46977;50.936;6.908;2022-12-10T00:18:14;52.20;;;21.83;;
61096;SDS011;46977;50.936;6.908;2022-12-10T00:21:17;52.80;;;22.75;;
61096;SDS011;46977;50.936;6.908;2022-12-10T00:24:22;59.70;;;23.77;;
61096;SDS011;46977;50.936;6.908;2022-12-10T00:27:24;57.47;;;23.73;;
61096;SDS011;46977;50.936;6.908;2022-12-10T00:30:28;50.92;;;22.40;;
61096;SDS011;46977;50.936;6.908;2022-12-10T00:33:30;64.85;;;25.15;;
61096;SDS011;46977;50.936;6.908;2022-12-10T00:36:33;53.65;;;23.95;;
61096;SDS011;46977;50.936;6.908;2022-12-10T00:39:37;53.05;;;23.92;;
61096;SDS011;46977;50.936;6.908;2022-12-10T00:42:41;55.55;;;23.38;;
61096;SDS011;46977;50.936;6.908;2022-12-10T00:45:43;59.35;;;25.73;;
61096;SDS011;46977;50.936;6.908;2022-12-10T00:48:46;61.55;;;24.20;;
61096;SDS011;46977;50.936;6.908;2022-12-10T00:51:49;57.33;;;23.77;;
61096;SDS011;46977;50.936;6.908;2022-12-10T00:54:54;55.47;;;22.67;;
61096;SDS011;46977;50.936;6.908;2022-12-10T00:57:56;54.58;;;23.30;;
61096;SDS011;46977;50.936;6.908;2022-12-10T01:01:06;57.58;;;24.38;;
61096;SDS011;46977;50.936;6.908;2022-12-10T01:04:11;58.63;;;25.02;;
61096;SDS011;46977;50.936;6.908;2022-12-10T01:07:14;62.15;;;23.83;;
61096;SDS011;46977;50.936;6.908;2022-12-10T01:10:20;66.22;;;26.23;;
61096;SDS011;46977;50.936;6.908;2022-12-10T01:13:24;62.47;;;25.45;;
61096;SDS011;46977;50.936;6.908;2022-12-10T01:16:26;65.53;;;26.52;;
61096;SDS011;46977;50.936;6.908;2022-12-10T01:19:31;67.25;;;25.15;;
61096;SDS011;46977;50.936;6.908;2022-12-10T01:22:36;60.45;;;24.65;;
61096;SDS011;46977;50.936;6.908;2022-12-10T01:25:39;62.67;;;24.80;;
61096;SDS011;46977;50.936;6.908;2022-12-10T01:28:42;59.72;;;24.27;;
61096;SDS011;46977;50.936;6.908;2022-12-10T01:31:44;65.57;;;24.98;;
61096;SDS011;46977;50.936;6.908;2022-12-10T01:34:49;62.90;;;26.70;;
61096;SDS011;46977;50.936;6.908;2022-12-10T01:37:52;64.97;;;24.75;;
61096;SDS011;46977;50.936;6.908;2022-12-10T01:40:55;62.92;;;23.23;;
61096;SDS011;46977;50.936;6.908;2022-12-10T01:43:59;63.00;;;23.23;;
61096;SDS011;46977;50.936;6.908;2022-12-10T01:47:02;63.33;;;24.63;;
61096;SDS011;46977;50.936;6.908;2022-12-10T01:50:06;61.50;;;24.27;;
61096;SDS011;46977;50.936;6.908;2022-12-10T01:53:14;56.85;;;22.60;;
61096;SDS011;46977;50.936;6.908;2022-12-10T01:56:18;63.05;;;25.60;;
61096;SDS011;46977;50.936;6.908;2022-12-10T01:59:22;54.78;;;22.95;;
61096;SDS011;46977;50.936;6.908;2022-12-10T02:02:34;53.40;;;23.00;;
61096;SDS011;46977;50.936;6.908;2022-12-10T02:05:43;58.65;;;23.02;;
61096;SDS011;46977;50.936;6.908;2022-12-10T02:12:02;53.28;;;20.17;;
61096;SDS011;46977;50.936;6.908;2022-12-10T02:15:10;58.67;;;20.83;;
61096;SDS011;46977;50.936;6.908;2022-12-10T02:18:18;52.42;;;19.98;;
61096;SDS011;46977;50.936;6.908;2022-12-10T02:21:22;56.30;;;22.65;;
61096;SDS011;46977;50.936;6.908;2022-12-10T02:24:27;50.97;;;20.40;;
61096;SDS011;46977;50.936;6.908;2022-12-10T02:27:35;53.75;;;22.23;;
61096;SDS011;46977;50.936;6.908;2022-12-10T02:30:44;53.80;;;22.48;;
61096;SDS011;46977;50.936;6.908;2022-12-10T02:33:48;51.05;;;21.63;;
61096;SDS011;46977;50.936;6.908;2022-12-10T02:36:53;60.28;;;23.65;;
61096;SDS011;46977;50.936;6.908;2022-12-10T02:39:57;58.38;;;24.42;;
61096;SDS011;46977;50.936;6.908;2022-12-10T02:43:05;56.67;;;23.40;;
61096;SDS011;46977;50.936;6.908;2022-12-10T02:46:09;61.17;;;25.05;;
61096;SDS011;46977;50.936;6.908;2022-12-10T02:49:13;54.58;;;23.80;;
61096;SDS011;46977;50.936;6.908;2022-12-10T02:52:17;56.08;;;23.33;;
61096;SDS011;46977;50.936;6.908;2022-12-10T02:55:24;55.03;;;23.10;;
61096;SDS011;46977;50.936;6.908;2022-12-10T02:58:31;61.80;;;24.10;;
61096;SDS011;46977;50.936;6.908;2022-12-10T03:01:44;59.28;;;24.33;;
61096;SDS011;46977;50.936;6.908;2022-12-10T03:04:52;55.20;;;22.60;;
61096;SDS011;46977;50.936;6.908;2022-12-10T03:07:57;65.30;;;24.40;;
61096;SDS011;46977;50.936;6.908;2022-12-10T03:11:04;69.55;;;24.23;;
61096;SDS011;46977;50.936;6.908;2022-12-10T03:14:11;58.47;;;22.50;;
61096;SDS011;46977;50.936;6.908;2022-12-10T03:17:17;59.53;;;24.10;;
61096;SDS011;46977;50.936;6.908;2022-12-10T03:20:19;58.13;;;25.45;;
61096;SDS011;46977;50.936;6.908;2022-12-10T03:23:22;63.65;;;24.67;;
61096;SDS011;46977;50.936;6.908;2022-12-10T03:26:24;63.67;;;24.27;;
61096;SDS011;46977;50.936;6.908;2022-12-10T03:29:28;62.45;;;23.98;;
61096;SDS011;46977;50.936;6.908;2022-12-10T03:32:34;64.18;;;24.83;;
61096;SDS011;46977;50.936;6.908;2022-12-10T03:35:37;61.90;;;23.85;;
61096;SDS011;46977;50.936;6.908;2022-12-10T03:38:40;67.35;;;24.13;;
61096;SDS011;46977;50.936;6.908;2022-12-10T03:41:43;63.30;;;26.65;;
61096;SDS011;46977;50.936;6.908;2022-12-10T03:44:48;62.88;;;24.33;;
61096;SDS011;46977;50.936;6.908;2022-12-10T03:47:53;61.67;;;24.38;;
61096;SDS011;46977;50.936;6.908;2022-12-10T03:50:56;58.50;;;24.45;;
61096;SDS011;46977;50.936;6.908;2022-12-10T03:53:58;56.35;;;24.45;;
61096;SDS011;46977;50.936;6.908;2022-12-10T03:57:03;59.75;;;24.25;;
61096;SDS011;46977;50.936;6.908;2022-12-10T04:00:06;62.53;;;24.05;;
61096;SDS011;46977;50.936;6.908;2022-12-10T04:03:20;54.97;;;22.80;;
61096;SDS011;46977;50.936;6.908;2022-12-10T04:06:22;61.90;;;22.45;;
61096;SDS011;46977;50.936;6.908;2022-12-10T04:09:24;55.25;;;23.08;;
61096;SDS011;46977;50.936;6.908;2022-12-10T04:12:27;61.45;;;22.50;;
61096;SDS011;46977;50.936;6.908;2022-12-10T04:15:29;54.70;;;20.75;;
61096;SDS011;46977;50.936;6.908;2022-12-10T04:18:51;54.05;;;20.88;;
61096;SDS011;46977;50.936;6.908;2022-12-10T04:22:02;45.28;;;18.90;;
61096;SDS011;46977;50.936;6.908;2022-12-10T04:25:33;51.33;;;19.73;;
61096;SDS011;46977;50.936;6.908;2022-12-10T04:28:54;52.70;;;20.15;;
61096;SDS011;46977;50.936;6.908;2022-12-10T04:31:57;53.25;;;19.60;;
61096;SDS011;46977;50.936;6.908;2022-12-10T04:35:01;50.47;;;19.75;;
61096;SDS011;46977;50.936;6.908;2022-12-10T04:38:04;45.60;;;17.90;;
61096;SDS011;46977;50.936;6.908;2022-12-10T04:41:07;42.83;;;18.83;;
61096;SDS011;46977;50.936;6.908;2022-12-10T04:44:17;50.88;;;18.17;;
61096;SDS011;46977;50.936;6.908;2022-12-10T04:47:20;49.40;;;17.15;;
61096;SDS011;46977;50.936;6.908;2022-12-10T04:50:23;51.88;;;20.40;;
61096;SDS011;46977;50.936;6.908;2022-12-10T04:53:26;51.25;;;19.13;;
61096;SDS011;46977;50.936;6.908;2022-12-10T04:56:28;41.33;;;17.95;;
61096;SDS011;46977;50.936;6.908;2022-12-10T04:59:31;51.08;;;18.13;;
61096;SDS011;46977;50.936;6.908;2022-12-10T05:02:33;47.42;;;18.55;;
61096;SDS011;46977;50.936;6.908;2022-12-10T05:05:37;46.80;;;18.35;;
61096;SDS011;46977;50.936;6.908;2022-12-10T05:08:40;50.35;;;18.15;;
61096;SDS011;46977;50.936;6.908;2022-12-10T05:11:43;47.72;;;18.13;;
61096;SDS011;46977;50.936;6.908;2022-12-10T05:14:46;50.05;;;18.63;;
61096;SDS011;46977;50.936;6.908;2022-12-10T05:17:51;47.85;;;19.42;;
61096;SDS011;46977;50.936;6.908;2022-12-10T05:20:54;46.08;;;17.15;;
61096;SDS011;46977;50.936;6.908;2022-12-10T05:24:00;47.90;;;17.42;;
61096;SDS011;46977;50.936;6.908;2022-12-10T05:27:02;48.40;;;18.63;;
61096;SDS011;46977;50.936;6.908;2022-12-10T05:30:05;48.03;;;19.35;;
61096;SDS011;46977;50.936;6.908;2022-12-10T05:33:08;49.40;;;19.60;;
61096;SDS011;46977;50.936;6.908;2022-12-10T05:36:13;49.15;;;19.73;;
61096;SDS011;46977;50.936;6.908;2022-12-10T05:39:17;48.83;;;19.20;;
61096;SDS011;46977;50.936;6.908;2022-12-10T05:42:19;47.30;;;16.75;;
61096;SDS011;46977;50.936;6.908;2022-12-10T05:45:21;52.30;;;18.40;;
61096;SDS011;46977;50.936;6.908;2022-12-10T05:48:24;52.25;;;19.88;;
61096;SDS011;46977;50.936;6.908;2022-12-10T05:51:28;50.08;;;19.92;;
61096;SDS011;46977;50.936;6.908;2022-12-10T05:54:32;54.35;;;19.38;;
61096;SDS011;46977;50.936;6.908;2022-12-10T05:57:35;52.58;;;19.35;;
61096;SDS011;46977;50.936;6.908;2022-12-10T06:00:38;57.60;;;19.20;;
61096;SDS011;46977;50.936;6.908;2022-12-10T06:03:41;51.30;;;20.45;;
61096;SDS011;46977;50.936;6.908;2022-12-10T06:06:45;56.67;;;20.77;;
61096;SDS011;46977;50.936;6.908;2022-12-10T06:09:49;56.80;;;20.38;;
61096;SDS011;46977;50.936;6.908;2022-12-10T06:12:51;57.13;;;20.40;;
61096;SDS011;46977;50.936;6.908;2022-12-10T06:15:53;60.45;;;18.38;;
61096;SDS011;46977;50.936;6.908;2022-12-10T06:18:56;54.15;;;19.90;;
61096;SDS011;46977;50.936;6.908;2022-12-10T06:21:59;48.72;;;19.38;;
61096;SDS011;46977;50.936;6.908;2022-12-10T06:25:02;57.63;;;20.67;;
61096;SDS011;46977;50.936;6.908;2022-12-10T06:28:04;50.20;;;20.52;;
61096;SDS011;46977;50.936;6.908;2022-12-10T06:31:07;51.55;;;20.25;;
61096;SDS011;46977;50.936;6.908;2022-12-10T06:34:09;57.60;;;21.00;;
61096;SDS011;46977;50.936;6.908;2022-12-10T06:37:13;53.58;;;19.98;;
61096;SDS011;46977;50.936;6.908;2022-12-10T06:40:16;50.42;;;21.00;;
61096;SDS011;46977;50.936;6.908;2022-12-10T06:43:18;53.08;;;20.10;;
61096;SDS011;46977;50.936;6.908;2022-12-10T06:46:20;51.03;;;23.25;;
61096;SDS011;46977;50.936;6.908;2022-12-10T06:49:23;50.55;;;20.98;;
61096;SDS011;46977;50.936;6.908;2022-12-10T06:52:26;55.38;;;22.75;;
61096;SDS011;46977;50.936;6.908;2022-12-10T06:55:29;54.15;;;21.42;;
61096;SDS011;46977;50.936;6.908;2022-12-10T06:58:32;51.55;;;21.48;;
61096;SDS011;46977;50.936;6.908;2022-12-10T07:01:36;58.92;;;22.70;;
61096;SDS011;46977;50.936;6.908;2022-12-10T07:04:39;52.33;;;22.13;;
61096;SDS011;46977;50.936;6.908;2022-12-10T07:07:43;61.13;;;22.08;;
61096;SDS011;46977;50.936;6.908;2022-12-10T07:10:46;56.65;;;22.23;;
61096;SDS011;46977;50.936;6.908;2022-12-10T07:13:48;60.03;;;22.33;;
61096;SDS011;46977;50.936;6.908;2022-12-10T07:16:50;58.85;;;22.15;;
61096;SDS011;46977;50.936;6.908;2022-12-10T07:19:55;61.80;;;22.58;;
61096;SDS011;46977;50.936;6.908;2022-12-10T07:22:58;55.83;;;21.15;;
61096;SDS011;46977;50.936;6.908;2022-12-10T07:26:03;57.55;;;24.23;;
61096;SDS011;46977;50.936;6.908;2022-12-10T07:29:06;57.50;;;21.65;;
61096;SDS011;46977;50.936;6.908;2022-12-10T07:32:10;58.25;;;21.60;;
61096;SDS011;46977;50.936;6.908;2022-12-10T07:35:13;52.88;;;20.80;;
61096;SDS011;46977;50.936;6.908;2022-12-10T07:38:17;50.22;;;21.23;;
61096;SDS011;46977;50.936;6.908;2022-12-10T07:41:19;54.25;;;21.65;;
61096;SDS011;46977;50.936;6.908;2022-12-10T07:44:23;60.05;;;22.67;;
61096;SDS011;46977;50.936;6.908;2022-12-10T07:47:26;65.15;;;24.55;;
61096;SDS011;46977;50.936;6.908;2022-12-10T07:50:29;67.95;;;24.48;;
61096;SDS011;46977;50.936;6.908;2022-12-10T07:53:32;69.88;;;26.23;;
61096;SDS011;46977;50.936;6.908;2022-12-10T07:56:37;67.47;;;25.15;;
61096;SDS011;46977;50.936;6.908;2022-12-10T07:59:39;64.93;;;23.88;;
61096;SDS011;46977;50.936;6.908;2022-12-10T08:02:41;69.40;;;23.65;;
61096;SDS011;46977;50.936;6.908;2022-12-10T08:05:44;68.68;;;26.52;;
61096;SDS011;46977;50.936;6.908;2022-12-10T08:08:48;80.63;;;27.90;;
61096;SDS011;46977;50.936;6.908;2022-12-10T08:11:52;75.30;;;26.73;;
61096;SDS011;46977;50.936;6.908;2022-12-10T08:14:54;89.18;;;29.02;;
61096;SDS011;46977;50.936;6.908;2022-12-10T08:17:57;75.00;;;28.08;;
61096;SDS011;46977;50.936;6.908;2022-12-10T08:21:02;93.85;;;30.95;;
61096;SDS011;46977;50.936;6.908;2022-12-10T08:24:07;92.60;;;28.83;;
61096;SDS011;46977;50.936;6.908;2022-12-10T08:27:13;82.78;;;28.75;;
61096;SDS011;46977;50.936;6.908;2022-12-10T08:30:24;94.15;;;32.50;;
61096;SDS011;46977;50.936;6.908;2022-12-10T08:33:27;81.65;;;28.77;;
61096;SDS011;46977;50.936;6.908;2022-12-10T08:36:32;80.50;;;29.55;;
61096;SDS011;46977;50.936;6.908;2022-12-10T08:39:36;91.60;;;28.60;;
61096;SDS011;46977;50.936;6.908;2022-12-10T08:42:38;94.55;;;31.13;;
61096;SDS011;46977;50.936;6.908;2022-12-10T08:45:40;91.25;;;31.20;;
61096;SDS011;46977;50.936;6.908;2022-12-10T08:48:45;97.50;;;33.22;;
61096;SDS011;46977;50.936;6.908;2022-12-10T08:51:47;87.10;;;29.75;;
61096;SDS011;46977;50.936;6.908;2022-12-10T08:54:51;86.03;;;29.00;;
61096;SDS011;46977;50.936;6.908;2022-12-10T08:57:53;95.90;;;31.00;;
61096;SDS011;46977;50.936;6.908;2022-12-10T09:00:56;92.07;;;31.40;;
61096;SDS011;46977;50.936;6.908;2022-12-10T09:03:58;91.70;;;30.33;;
61096;SDS011;46977;50.936;6.908;2022-12-10T09:07:03;97.22;;;32.65;;
61096;SDS011;46977;50.936;6.908;2022-12-10T09:10:12;98.97;;;32.75;;
61096;SDS011;46977;50.936;6.908;2022-12-10T09:13:15;94.15;;;30.95;;
61096;SDS011;46977;50.936;6.908;2022-12-10T09:16:17;101.82;;;33.05;;
61096;SDS011;46977;50.936;6.908;2022-12-10T09:19:20;94.50;;;32.20;;
61096;SDS011;46977;50.936;6.908;2022-12-10T09:22:23;92.60;;;30.15;;
61096;SDS011;46977;50.936;6.908;2022-12-10T09:25:26;94.30;;;31.55;;
61096;SDS011;46977;50.936;6.908;2022-12-10T09:28:29;106.55;;;31.80;;
61096;SDS011;46977;50.936;6.908;2022-12-10T09:31:31;97.10;;;33.08;;
61096;SDS011;46977;50.936;6.908;2022-12-10T09:34:34;103.72;;;32.78;;
61096;SDS011;46977;50.936;6.908;2022-12-10T09:37:36;99.35;;;32.10;;
61096;SDS011;46977;50.936;6.908;2022-12-10T09:40:40;99.30;;;33.00;;
61096;SDS011;46977;50.936;6.908;2022-12-10T09:43:47;90.57;;;32.17;;
61096;SDS011;46977;50.936;6.908;2022-12-10T09:46:53;79.50;;;29.55;;
61096;SDS011;46977;50.936;6.908;2022-12-10T09:49:58;90.93;;;34.30;;
61096;SDS011;46977;50.936;6.908;2022-12-10T09:53:14;92.15;;;30.48;;
61096;SDS011;46977;50.936;6.908;2022-12-10T09:56:19;88.22;;;31.48;;
61096;SDS011;46977;50.936;6.908;2022-12-10T09:59:24;84.45;;;28.70;;
61096;SDS011;46977;50.936;6.908;2022-12-10T10:02:31;98.50;;;30.80;;
61096;SDS011;46977;50.936;6.908;2022-12-10T10:05:35;94.45;;;31.25;;
61096;SDS011;46977;50.936;6.908;2022-12-10T10:08:39;101.40;;;33.72;;
61096;SDS011;46977;50.936;6.908;2022-12-10T10:11:47;142.43;;;44.47;;
61096;SDS011;46977;50.936;6.908;2022-12-10T10:14:52;93.85;;;31.08;;
61096;SDS011;46977;50.936;6.908;2022-12-10T10:17:56;86.13;;;31.55;;
61096;SDS011;46977;50.936;6.908;2022-12-10T10:21:04;96.97;;;33.22;;
61096;SDS011;46977;50.936;6.908;2022-12-10T10:24:07;83.60;;;30.58;;
61096;SDS011;46977;50.936;6.908;2022-12-10T10:27:16;90.43;;;31.95;;
61096;SDS011;46977;50.936;6.908;2022-12-10T10:30:23;96.68;;;30.50;;
61096;SDS011;46977;50.936;6.908;2022-12-10T10:33:26;85.32;;;29.88;;
61096;SDS011;46977;50.936;6.908;2022-12-10T10:36:29;95.50;;;30.80;;
61096;SDS011;46977;50.936;6.908;2022-12-10T10:39:36;92.88;;;30.58;;
61096;SDS011;46977;50.936;6.908;2022-12-10T10:42:43;98.00;;;31.80;;
61096;SDS011;46977;50.936;6.908;2022-12-10T10:45:49;93.47;;;32.35;;
61096;SDS011;46977;50.936;6.908;2022-12-10T10:48:55;91.60;;;31.20;;
61096;SDS011;46977;50.936;6.908;2022-12-10T10:52:15;89.75;;;30.63;;
61096;SDS011;46977;50.936;6.908;2022-12-10T10:55:30;92.55;;;32.65;;
61096;SDS011;46977;50.936;6.908;2022-12-10T10:58:46;98.75;;;32.67;;
61096;SDS011;46977;50.936;6.908;2022-12-10T11:01:52;96.18;;;32.50;;
61096;SDS011;46977;50.936;6.908;2022-12-10T11:05:03;95.97;;;33.40;;
61096;SDS011;46977;50.936;6.908;2022-12-10T11:08:12;104.25;;;32.70;;
61096;SDS011;46977;50.936;6.908;2022-12-10T11:11:18;97.70;;;33.40;;
61096;SDS011;46977;50.936;6.908;2022-12-10T11:14:26;95.95;;;33.13;;
61096;SDS011;46977;50.936;6.908;2022-12-10T11:17:45;97.55;;;33.28;;
61096;SDS011;46977;50.936;6.908;2022-12-10T11:20:55;83.85;;;30.80;;
61096;SDS011;46977;50.936;6.908;2022-12-10T11:24:10;81.72;;;29.40;;
61096;SDS011;46977;50.936;6.908;2022-12-10T11:27:20;89.68;;;30.10;;
61096;SDS011;46977;50.936;6.908;2022-12-10T11:30:33;79.97;;;28.27;;
61096;SDS011;46977;50.936;6.908;2022-12-10T11:33:40;89.22;;;29.15;;
61096;SDS011;46977;50.936;6.908;2022-12-10T11:36:50;84.80;;;27.83;;
61096;SDS011;46977;50.936;6.908;2022-12-10T11:40:06;78.55;;;26.80;;
61096;SDS011;46977;50.936;6.908;2022-12-10T11:43:40;74.43;;;26.38;;
61096;SDS011;46977;50.936;6.908;2022-12-10T11:46:55;73.43;;;24.95;;
61096;SDS011;46977;50.936;6.908;2022-12-10T11:50:06;71.80;;;24.95;;
61096;SDS011;46977;50.936;6.908;2022-12-10T11:53:22;82.43;;;26.55;;
61096;SDS011;46977;50.936;6.908;2022-12-10T11:56:37;83.28;;;26.80;;
61096;SDS011;46977;50.936;6.908;2022-12-10T11:59:46;73.75;;;26.98;;
61096;SDS011;46977;50.936;6.908;2022-12-10T12:03:13;73.85;;;26.35;;
61096;SDS011;46977;50.936;6.908;2022-12-10T12:06:30;82.55;;;28.10;;
61096;SDS011;46977;50.936;6.908;2022-12-10T12:09:40;80.40;;;28.90;;
61096;SDS011;46977;50.936;6.908;2022-12-10T12:15:57;72.38;;;24.05;;
61096;SDS011;46977;50.936;6.908;2022-12-10T12:19:08;75.80;;;23.83;;
61096;SDS011;46977;50.936;6.908;2022-12-10T12:22:21;60.90;;;22.33;;
61096;SDS011;46977;50.936;6.908;2022-12-10T12:25:27;66.03;;;23.88;;
61096;SDS011;46977;50.936;6.908;2022-12-10T12:28:36;71.05;;;23.15;;
61096;SDS011;46977;50.936;6.908;2022-12-10T12:31:44;76.72;;;25.67;;
61096;SDS011;46977;50.936;6.908;2022-12-10T12:34:54;66.53;;;25.23;;
61096;SDS011;46977;50.936;6.908;2022-12-10T12:38:03;72.55;;;25.50;;
61096;SDS011;46977;50.936;6.908;2022-12-10T12:41:21;79.07;;;24.35;;
61096;SDS011;46977;50.936;6.908;2022-12-10T12:44:29;71.78;;;24.98;;
61096;SDS011;46977;50.936;6.908;2022-12-10T12:47:39;67.15;;;24.27;;
61096;SDS011;46977;50.936;6.908;2022-12-10T12:50:46;66.07;;;23.10;;
61096;SDS011;46977;50.936;6.908;2022-12-10T12:53:50;74.35;;;25.73;;
61096;SDS011;46977;50.936;6.908;2022-12-10T12:56:57;70.55;;;24.15;;
61096;SDS011;46977;50.936;6.908;2022-12-10T13:00:03;73.18;;;24.98;;
61096;SDS011;46977;50.936;6.908;2022-12-10T13:03:17;75.07;;;23.17;;
61096;SDS011;46977;50.936;6.908;2022-12-10T13:06:25;67.47;;;22.65;;
61096;SDS011;46977;50.936;6.908;2022-12-10T13:09:44;65.95;;;23.02;;
61096;SDS011;46977;50.936;6.908;2022-12-10T13:12:47;59.95;;;22.55;;
61096;SDS011;46977;50.936;6.908;2022-12-10T13:15:51;61.40;;;23.52;;
61096;SDS011;46977;50.936;6.908;2022-12-10T13:19:07;62.90;;;21.33;;
61096;SDS011;46977;50.936;6.908;2022-12-10T13:25:54;64.97;;;22.27;;
61096;SDS011;46977;50.936;6.908;2022-12-10T13:29:19;60.85;;;20.23;;
61096;SDS011;46977;50.936;6.908;2022-12-10T13:35:55;63.80;;;20.48;;
61096;SDS011;46977;50.936;6.908;2022-12-10T13:39:20;69.18;;;22.83;;
61096;SDS011;46977;50.936;6.908;2022-12-10T13:42:31;68.38;;;22.08;;
61096;SDS011;46977;50.936;6.908;2022-12-10T13:49:24;66.68;;;24.05;;
61096;SDS011;46977;50.936;6.908;2022-12-10T13:52:30;66.28;;;23.65;;
61096;SDS011;46977;50.936;6.908;2022-12-10T13:55:41;67.70;;;23.33;;
61096;SDS011;46977;50.936;6.908;2022-12-10T13:58:49;65.28;;;23.25;;
61096;SDS011;46977;50.936;6.908;2022-12-10T14:01:58;72.15;;;24.27;;
61096;SDS011;46977;50.936;6.908;2022-12-10T14:05:23;73.00;;;25.13;;
61096;SDS011;46977;50.936;6.908;2022-12-10T14:08:47;69.68;;;22.08;;
61096;SDS011;46977;50.936;6.908;2022-12-10T14:12:07;75.28;;;22.90;;
61096;SDS011;46977;50.936;6.908;2022-12-10T14:15:15;75.60;;;23.85;;
61096;SDS011;46977;50.936;6.908;2022-12-10T14:18:20;68.85;;;23.17;;
61096;SDS011;46977;50.936;6.908;2022-12-10T14:21:23;70.00;;;24.30;;
61096;SDS011;46977;50.936;6.908;2022-12-10T14:24:28;77.32;;;25.52;;
61096;SDS011;46977;50.936;6.908;2022-12-10T14:27:33;79.78;;;23.50;;
61096;SDS011;46977;50.936;6.908;2022-12-10T14:30:40;80.15;;;25.10;;
61096;SDS011;46977;50.936;6.908;2022-12-10T14:33:44;76.20;;;25.20;;
61096;SDS011;46977;50.936;6.908;2022-12-10T14:36:49;72.50;;;23.92;;
61096;SDS011;46977;50.936;6.908;2022-12-10T14:39:52;74.88;;;22.52;;
61096;SDS011;46977;50.936;6.908;2022-12-10T14:42:59;81.15;;;25.27;;
61096;SDS011;46977;50.936;6.908;2022-12-10T14:46:05;78.47;;;27.77;;
61096;SDS011;46977;50.936;6.908;2022-12-10T14:49:16;67.63;;;24.30;;
61096;SDS011;46977;50.936;6.908;2022-12-10T14:52:20;87.32;;;27.13;;
61096;SDS011;46977;50.936;6.908;2022-12-10T14:55:26;85.15;;;27.02;;
61096;SDS011;46977;50.936;6.908;2022-12-10T14:58:30;77.25;;;25.15;;
61096;SDS011;46977;50.936;6.908;2022-12-10T15:01:44;81.20;;;26.25;;
61096;SDS011;46977;50.936;6.908;2022-12-10T15:04:48;71.00;;;24.67;;
61096;SDS011;46977;50.936;6.908;2022-12-10T15:07:53;75.25;;;23.33;;
61096;SDS011;46977;50.936;6.908;2022-12-10T15:10:57;78.43;;;26.50;;
61096;SDS011;46977;50.936;6.908;2022-12-10T15:14:02;81.65;;;27.90;;
61096;SDS011;46977;50.936;6.908;2022-12-10T15:20:36;69.97;;;25.77;;
61096;SDS011;46977;50.936;6.908;2022-12-10T15:23:40;81.90;;;25.85;;
61096;SDS011;46977;50.936;6.908;2022-12-10T15:26:45;84.30;;;25.70;;
61096;SDS011;46977;50.936;6.908;2022-12-10T15:29:50;90.78;;;26.17;;
61096;SDS011;46977;50.936;6.908;2022-12-10T15:32:53;82.25;;;25.77;;
61096;SDS011;46977;50.936;6.908;2022-12-10T15:35:56;82.70;;;27.50;;
61096;SDS011;46977;50.936;6.908;2022-12-10T15:39:03;85.38;;;27.27;;
61096;SDS011;46977;50.936;6.908;2022-12-10T15:42:26;94.72;;;30.10;;
61096;SDS011;46977;50.936;6.908;2022-12-10T15:45:50;92.05;;;27.58;;
61096;SDS011;46977;50.936;6.908;2022-12-10T15:48:53;84.88;;;28.08;;
61096;SDS011;46977;50.936;6.908;2022-12-10T15:51:56;89.80;;;27.85;;
61096;SDS011;46977;50.936;6.908;2022-12-10T15:55:00;95.97;;;27.08;;
61096;SDS011;46977;50.936;6.908;2022-12-10T15:58:04;92.63;;;28.08;;
61096;SDS011;46977;50.936;6.908;2022-12-10T16:01:09;81.78;;;28.30;;
61096;SDS011;46977;50.936;6.908;2022-12-10T16:04:14;107.43;;;29.95;;
61096;SDS011;46977;50.936;6.908;2022-12-10T16:07:16;103.63;;;29.58;;
61096;SDS011;46977;50.936;6.908;2022-12-10T16:10:20;88.47;;;29.50;;
61096;SDS011;46977;50.936;6.908;2022-12-10T16:13:24;85.65;;;27.95;;
61096;SDS011;46977;50.936;6.908;2022-12-10T16:16:29;92.07;;;28.85;;
61096;SDS011;46977;50.936;6.908;2022-12-10T16:19:32;91.30;;;27.38;;
61096;SDS011;46977;50.936;6.908;2022-12-10T16:22:35;97.38;;;29.63;;
61096;SDS011;46977;50.936;6.908;2022-12-10T16:25:37;92.13;;;29.20;;
61096;SDS011;46977;50.936;6.908;2022-12-10T16:28:47;103.15;;;29.17;;
61096;SDS011;46977;50.936;6.908;2022-12-10T16:31:51;98.22;;;28.95;;
61096;SDS011;46977;50.936;6.908;2022-12-10T16:34:54;82.88;;;27.65;;
61096;SDS011;46977;50.936;6.908;2022-12-10T16:37:57;86.53;;;28.50;;
61096;SDS011;46977;50.936;6.908;2022-12-10T16:41:00;94.00;;;28.10;;
61096;SDS011;46977;50.936;6.908;2022-12-10T16:44:04;102.97;;;29.38;;
61096;SDS011;46977;50.936;6.908;2022-12-10T16:47:10;93.40;;;27.13;;
61096;SDS011;46977;50.936;6.908;2022-12-10T16:50:14;94.13;;;29.20;;
61096;SDS011;46977;50.936;6.908;2022-12-10T16:53:18;88.28;;;28.55;;
61096;SDS011;46977;50.936;6.908;2022-12-10T16:56:22;88.25;;;27.83;;
61096;SDS011;46977;50.936;6.908;2022-12-10T16:59:25;95.38;;;29.95;;
61096;SDS011;46977;50.936;6.908;2022-12-10T17:02:30;86.10;;;27.42;;
61096;SDS011;46977;50.936;6.908;2022-12-10T17:05:34;86.80;;;29.17;;
61096;SDS011;46977;50.936;6.908;2022-12-10T17:08:38;91.38;;;25.25;;
61096;SDS011;46977;50.936;6.908;2022-12-10T17:11:40;83.25;;;26.75;;
61096;SDS011;46977;50.936;6.908;2022-12-10T17:14:52;93.78;;;29.15;;
61096;SDS011;46977;50.936;6.908;2022-12-10T17:17:58;86.28;;;25.80;;
61096;SDS011;46977;50.936;6.908;2022-12-10T17:21:04;80.75;;;26.33;;
61096;SDS011;46977;50.936;6.908;2022-12-10T17:24:06;79.93;;;24.88;;
61096;SDS011;46977;50.936;6.908;2022-12-10T17:27:10;79.97;;;25.85;;
61096;SDS011;46977;50.936;6.908;2022-12-10T17:30:14;84.28;;;27.25;;
61096;SDS011;46977;50.936;6.908;2022-12-10T17:33:20;83.05;;;27.55;;
61096;SDS011;46977;50.936;6.908;2022-12-10T17:36:23;83.45;;;26.75;;
61096;SDS011;46977;50.936;6.908;2022-12-10T17:39:26;84.32;;;26.00;;
61096;SDS011;46977;50.936;6.908;2022-12-10T17:42:30;80.78;;;26.70;;
61096;SDS011;46977;50.936;6.908;2022-12-10T17:45:32;84.57;;;26.55;;
61096;SDS011;46977;50.936;6.908;2022-12-10T17:48:36;84.53;;;26.10;;
61096;SDS011;46977;50.936;6.908;2022-12-10T17:51:39;85.35;;;25.52;;
61096;SDS011;46977;50.936;6.908;2022-12-10T17:54:44;93.68;;;29.10;;
61096;SDS011;46977;50.936;6.908;2022-12-10T17:57:47;95.07;;;26.98;;
61096;SDS011;46977;50.936;6.908;2022-12-10T18:00:50;88.43;;;26.33;;
61096;SDS011;46977;50.936;6.908;2022-12-10T18:03:55;96.88;;;29.67;;
61096;SDS011;46977;50.936;6.908;2022-12-10T18:06:58;99.75;;;29.55;;
61096;SDS011;46977;50.936;6.908;2022-12-10T18:10:00;88.95;;;27.92;;
61096;SDS011;46977;50.936;6.908;2022-12-10T18:13:03;93.50;;;29.23;;
61096;SDS011;46977;50.936;6.908;2022-12-10T18:16:09;90.13;;;30.70;;
61096;SDS011;46977;50.936;6.908;2022-12-10T18:19:15;91.93;;;26.83;;
61096;SDS011;46977;50.936;6.908;2022-12-10T18:22:17;88.57;;;27.38;;
61096;SDS011;46977;50.936;6.908;2022-12-10T18:25:20;95.78;;;29.45;;
61096;SDS011;46977;50.936;6.908;2022-12-10T18:28:47;97.05;;;27.40;;